Time;durP1;ratioP1;P1;durP2;ratioP2;P2;SDS_P1;SDS_P2;PMS_P1;PMS_P2;Temp;Humidity;BMP_temperature;BMP_pressure;BME280_temperature;BME280_humidity;BME280_pressure;Samples;Min_cycle;Max_cycle;Signal;HPM_P1;HPM_P2
2021/12/23 00:00:16;;;;;;;;;54.75;40.50;;;;;0.65;67.73;100923.47;5080147;27;68378;-61
2021/12/23 00:02:42;;;;;;;;;57.25;40.75;;;;;0.64;67.71;100926.16;5097936;27;64088;-60
2021/12/23 00:05:08;;;;;;;;;53.75;41.00;;;;;0.62;67.50;100928.78;5099353;27;45323;-61
2021/12/23 00:07:34;;;;;;;;;57.75;43.50;;;;;0.60;67.87;100930.59;5079906;27;45685;-62
2021/12/23 00:10:07;;;;;;;;;63.00;42.50;;;;;0.60;67.93;100930.59;5099033;27;46489;-61
2021/12/23 00:12:37;;;;;;;;;52.25;42.25;;;;;0.59;67.89;100928.91;5099074;27;45327;-61
2021/12/23 00:15:04;;;;;;;;;61.00;42.75;;;;;0.60;67.78;100935.75;5099199;27;45181;-61
2021/12/23 00:25:23;;;;;;;;;55.50;38.00;;;;;0.62;68.05;100917.59;5098657;27;45476;-60
2021/12/23 00:27:48;;;;;;;;;64.25;42.00;;;;;0.63;67.83;100914.13;5098229;27;61560;-61
2021/12/23 00:30:13;;;;;;;;;63.25;43.25;;;;;0.61;67.98;100910.75;5097929;27;67948;-61
2021/12/23 00:32:39;;;;;;;;;57.00;41.75;;;;;0.61;67.94;100909.00;5079647;27;69605;-61
2021/12/23 00:35:05;;;;;;;;;49.50;39.75;;;;;0.62;68.05;100897.75;5097859;27;65027;-61
2021/12/23 00:37:37;;;;;;;;;55.25;40.00;;;;;0.63;67.91;100901.19;5098751;27;45335;-61
2021/12/23 00:40:03;;;;;;;;;54.00;38.00;;;;;0.62;67.94;100892.56;5080027;27;45491;-61
2021/12/23 00:42:31;;;;;;;;;60.50;42.00;;;;;0.63;67.83;100899.44;5080229;27;45764;-62
2021/12/23 00:44:56;;;;;;;;;50.00;34.00;;;;;0.63;67.96;100886.50;5098738;27;45343;-61
2021/12/23 00:47:21;;;;;;;;;60.25;44.00;;;;;0.62;67.88;100887.41;5097975;27;61659;-61
2021/12/23 00:49:47;;;;;;;;;50.00;40.00;;;;;0.61;67.90;100893.47;5079143;27;75443;-61
2021/12/23 00:52:14;;;;;;;;;60.25;43.00;;;;;0.59;67.75;100884.94;5079298;27;67962;-63
2021/12/23 00:54:40;;;;;;;;;56.00;40.25;;;;;0.61;67.98;100896.06;5098534;27;45399;-61
2021/12/23 00:57:05;;;;;;;;;64.00;46.50;;;;;0.59;67.93;100877.19;5097524;27;67231;-61
2021/12/23 00:59:31;;;;;;;;;62.25;44.25;;;;;0.58;67.99;100878.09;5098363;27;46200;-61
2021/12/23 01:01:56;;;;;;;;;60.25;40.00;;;;;0.55;68.04;100876.47;5097337;27;68575;-62
2021/12/23 01:04:22;;;;;;;;;62.25;44.00;;;;;0.54;68.14;100874.81;5098509;27;45277;-62
2021/12/23 01:06:48;;;;;;;;;58.25;43.50;;;;;0.54;67.92;100879.13;5097662;27;61650;-61
2021/12/23 01:09:13;;;;;;;;;57.75;45.00;;;;;0.54;68.19;100879.13;5098231;27;46557;-61
2021/12/23 01:11:39;;;;;;;;;63.50;47.00;;;;;0.54;67.99;100873.94;5097233;27;67602;-61
2021/12/23 01:19:21;;;;;;;;;58.00;43.50;;;;;0.52;68.02;100871.44;5098112;27;46158;-61
2021/12/23 01:21:47;;;;;;;;;54.25;41.50;;;;;0.52;67.97;100868.03;5097296;27;62669;-61
2021/12/23 01:24:12;;;;;;;;;57.50;42.50;;;;;0.50;67.78;100864.66;5098055;27;45390;-61
2021/12/23 01:26:38;;;;;;;;;51.75;36.00;;;;;0.49;67.82;100858.63;5097750;27;45313;-61
2021/12/23 01:29:03;;;;;;;;;58.25;43.00;;;;;0.48;67.92;100853.53;5097858;27;46301;-61
2021/12/23 01:31:29;;;;;;;;;58.50;43.25;;;;;0.47;67.92;100850.09;5097464;27;55886;-61
2021/12/23 01:33:55;;;;;;;;;52.00;42.50;;;;;0.47;67.99;100846.69;5079201;27;45406;-62
2021/12/23 01:36:20;;;;;;;;;64.25;46.00;;;;;0.50;67.88;100846.56;5097824;27;45460;-61
2021/12/23 01:38:46;;;;;;;;;60.25;45.75;;;;;0.48;68.05;100849.19;5097582;27;46596;-61
2021/12/23 01:41:11;;;;;;;;;60.00;43.75;;;;;0.47;67.93;100854.44;5096667;27;71851;-61
2021/12/23 01:43:36;;;;;;;;;58.50;43.75;;;;;0.46;67.95;100855.34;5097115;27;58559;-62
2021/12/23 01:46:02;;;;;;;;;60.75;45.75;;;;;0.44;67.89;100855.38;5096924;27;63625;-61
2021/12/23 01:48:27;;;;;;;;;63.25;45.25;;;;;0.43;68.09;100846.81;5097568;27;45702;-61
2021/12/23 01:50:53;;;;;;;;;63.00;41.75;;;;;0.42;68.14;100855.47;5096711;27;68947;-61
2021/12/23 01:53:18;;;;;;;;;67.25;48.00;;;;;0.42;68.09;100849.44;5096888;27;64663;-61
2021/12/23 01:55:45;;;;;;;;;64.25;48.00;;;;;0.41;68.02;100851.19;5079223;27;45591;-61
2021/12/23 01:58:11;;;;;;;;;60.75;48.50;;;;;0.42;67.98;100846.84;5097527;27;46376;-62
2021/12/23 02:00:37;;;;;;;;;61.50;48.00;;;;;0.41;68.15;100848.63;5078986;27;47356;-61
2021/12/23 02:03:02;;;;;;;;;61.50;47.50;;;;;0.43;68.08;100843.38;5097431;27;45224;-61
2021/12/23 02:05:30;;;;;;;;;64.25;45.00;;;;;0.43;68.13;100840.78;5096921;27;55732;-61
2021/12/23 02:07:55;;;;;;;;;61.25;45.75;;;;;0.40;68.11;100834.00;5078147;27;45419;-61
2021/12/23 02:10:22;;;;;;;;;68.75;47.75;;;;;0.41;68.22;100827.94;5096829;27;54185;-61
2021/12/23 02:12:48;;;;;;;;;62.00;46.25;;;;;0.41;68.01;100822.75;5097517;27;45359;-61
2021/12/23 02:15:14;;;;;;;;;63.50;44.50;;;;;0.40;68.03;100813.31;5097241;27;45391;-61
2021/12/23 02:17:39;;;;;;;;;64.50;48.25;;;;;0.41;68.08;100820.19;5078751;27;46098;-60
2021/12/23 02:20:07;;;;;;;;;66.25;46.25;;;;;0.41;68.10;100820.19;5097152;27;45342;-61
2021/12/23 02:22:32;;;;;;;;;66.75;46.50;;;;;0.42;68.13;100821.84;5097214;27;45378;-60
2021/12/23 02:24:57;;;;;;;;;64.25;47.25;;;;;0.40;68.27;100818.50;5096821;27;45330;-61
2021/12/23 02:27:23;;;;;;;;;70.25;48.50;;;;;0.41;68.22;100827.06;5077620;27;74575;-60
2021/12/23 02:29:48;;;;;;;;;53.25;31.75;;;;;0.40;68.26;100822.81;5096574;27;58760;-61
2021/12/23 02:32:13;;;;;;;;;69.25;49.50;;;;;0.42;68.17;100831.34;5097098;27;45340;-61
2021/12/23 02:34:39;;;;;;;;;68.00;48.75;;;;;0.41;68.12;100827.94;5095900;27;69217;-61
2021/12/23 02:37:04;;;;;;;;;70.75;50.75;;;;;0.42;68.15;100819.28;5096144;27;65702;-61
2021/12/23 02:39:30;;;;;;;;;68.25;47.50;;;;;0.43;68.33;100820.97;5078533;27;45253;-61
2021/12/23 02:41:55;;;;;;;;;68.75;50.50;;;;;0.44;68.16;100812.28;5096966;27;45278;-60
2021/12/23 02:44:21;;;;;;;;;65.75;52.00;;;;;0.46;68.14;100811.41;5078636;27;45257;-61
2021/12/23 02:46:46;;;;;;;;;65.75;46.25;;;;;0.47;68.13;100813.91;5095792;27;72299;-60
2021/12/23 02:49:12;;;;;;;;;67.25;47.25;;;;;0.49;68.26;100800.94;5078521;27;45358;-60
2021/12/23 02:51:37;;;;;;;;;66.00;47.25;;;;;0.48;68.32;100805.25;5096740;27;45303;-61
2021/12/23 02:54:03;;;;;;;;;63.00;45.00;;;;;0.50;68.51;100800.84;5095949;27;70829;-60
2021/12/23 02:56:28;;;;;;;;;67.00;43.00;;;;;0.51;68.21;100799.13;5061245;27;47230;-61
2021/12/23 02:58:53;;;;;;;;;69.50;48.75;;;;;0.53;68.52;100792.97;5096745;27;45401;-61
2021/12/23 03:01:19;;;;;;;;;64.75;47.75;;;;;0.52;68.38;100786.09;5096073;27;61890;-61
2021/12/23 03:03:45;;;;;;;;;67.50;50.75;;;;;0.52;68.55;100793.03;5096660;27;45379;-60
2021/12/23 03:06:11;;;;;;;;;63.25;46.50;;;;;0.50;68.51;100776.75;5096478;27;45343;-60
2021/12/23 03:08:44;;;;;;;;;63.00;48.00;;;;;0.53;68.36;100784.38;5078258;27;45423;-61
2021/12/23 03:11:11;;;;;;;;;63.25;46.75;;;;;0.54;68.33;100775.69;5095695;27;45338;-61
2021/12/23 03:13:37;;;;;;;;;64.00;46.00;;;;;0.55;68.36;100778.22;5078468;27;45286;-60
2021/12/23 03:16:02;;;;;;;;;69.75;47.50;;;;;0.56;68.49;100779.06;5078057;27;46544;-61
2021/12/23 03:18:28;;;;;;;;;68.50;45.50;;;;;0.55;68.35;100779.94;5078273;27;45437;-61
2021/12/23 03:20:54;;;;;;;;;61.25;46.75;;;;;0.56;68.53;100779.91;5095662;27;63704;-60
2021/12/23 03:23:19;;;;;;;;;65.75;44.25;;;;;0.58;68.45;100778.09;5078241;27;45517;-60
2021/12/23 03:25:45;;;;;;;;;58.25;42.50;;;;;0.60;68.53;100775.44;5095793;27;51901;-61
2021/12/23 03:28:10;;;;;;;;;63.50;48.00;;;;;0.61;68.32;100771.94;5095520;27;66593;-61
2021/12/23 03:30:35;;;;;;;;;70.25;49.50;;;;;0.64;68.59;100776.16;5095892;27;60935;-61
2021/12/23 03:33:01;;;;;;;;;60.25;43.25;;;;;0.63;68.58;100769.31;5096444;27;45419;-61
2021/12/23 03:35:26;;;;;;;;;65.75;46.25;;;;;0.64;68.11;100764.06;5095075;27;70586;-61
2021/12/23 03:37:53;;;;;;;;;65.75;47.75;;;;;0.64;68.40;100758.88;5099385;27;49666;-62
2021/12/23 03:40:18;;;;;;;;;61.25;46.50;;;;;0.64;68.36;100761.47;5099739;27;45300;-61
2021/12/23 03:42:44;;;;;;;;;63.00;46.25;;;;;0.64;68.61;100758.06;5098768;27;66226;-60
2021/12/23 03:45:09;;;;;;;;;57.00;44.00;;;;;0.66;68.51;100754.47;5098847;27;63564;-61
2021/12/23 03:47:35;;;;;;;;;59.25;46.25;;;;;0.66;68.43;100754.47;5099584;27;45351;-60
2021/12/23 03:50:00;;;;;;;;;67.50;47.50;;;;;0.66;68.46;100741.56;5099603;27;45383;-61
2021/12/23 03:52:26;;;;;;;;;61.75;47.00;;;;;0.66;68.35;100741.56;5098851;27;63020;-61
2021/12/23 03:54:51;;;;;;;;;65.75;46.25;;;;;0.68;68.51;100741.50;5098313;27;70134;-61
2021/12/23 03:57:16;;;;;;;;;65.25;46.50;;;;;0.69;68.62;100738.00;5098697;27;69428;-61
2021/12/23 03:59:42;;;;;;;;;65.25;45.75;;;;;0.70;68.62;100732.75;5098968;27;54091;-61
2021/12/23 04:02:07;;;;;;;;;61.00;46.50;;;;;0.71;68.81;100731.03;5080620;27;60905;-62
2021/12/23 04:04:33;;;;;;;;;71.50;48.00;;;;;0.71;68.70;100731.84;5098119;27;73990;-61
2021/12/23 04:06:58;;;;;;;;;62.50;45.00;;;;;0.71;68.81;100729.25;5098848;27;57923;-62
2021/12/23 04:09:23;;;;;;;;;63.50;46.50;;;;;0.73;68.77;100729.22;5098384;27;65461;-60
2021/12/23 04:11:49;;;;;;;;;64.50;42.50;;;;;0.72;68.81;100728.34;5099138;27;45319;-61
2021/12/23 04:14:14;;;;;;;;;59.25;45.25;;;;;0.74;68.78;100716.19;5098102;27;71370;-61
2021/12/23 04:16:39;;;;;;;;;65.25;45.75;;;;;0.75;68.82;100722.22;5079744;27;70838;-62
2021/12/23 04:19:08;;;;;;;;;67.00;46.75;;;;;0.79;68.83;100715.16;5098544;27;59962;-61
2021/12/23 04:21:34;;;;;;;;;60.25;45.00;;;;;0.78;68.95;100710.88;5099136;27;45309;-61
2021/12/23 04:23:59;;;;;;;;;67.00;44.00;;;;;0.80;69.02;100717.66;5080662;27;45493;-61
2021/12/23 04:26:24;;;;;;;;;62.25;44.00;;;;;0.83;69.10;100708.94;5079531;27;70916;-61
2021/12/23 04:28:52;;;;;;;;;60.25;42.50;;;;;0.85;68.93;100697.59;5080578;27;45375;-61
2021/12/23 04:31:19;;;;;;;;;64.00;47.25;;;;;0.85;68.81;100697.59;5098991;27;45450;-61
2021/12/23 04:33:45;;;;;;;;;62.00;44.50;;;;;0.86;68.94;100691.50;5098616;27;50090;-61
2021/12/23 04:36:11;;;;;;;;;56.25;40.75;;;;;0.86;68.85;100683.75;5098617;27;45276;-60
2021/12/23 04:38:37;;;;;;;;;55.25;42.25;;;;;0.88;68.92;100688.88;5098838;27;45404;-61
2021/12/23 04:41:03;;;;;;;;;64.00;47.00;;;;;0.88;68.99;100687.09;5080617;27;45581;-61
2021/12/23 04:43:28;;;;;;;;;66.50;46.50;;;;;0.91;68.72;100690.47;5079666;27;64956;-61
2021/12/23 04:45:53;;;;;;;;;64.75;45.50;;;;;0.90;69.13;100689.66;5098009;27;62013;-61
2021/12/23 04:48:19;;;;;;;;;62.75;45.50;;;;;0.91;68.83;100691.31;5098025;27;60792;-61
2021/12/23 04:50:44;;;;;;;;;64.50;46.00;;;;;0.91;68.69;100680.97;5097766;27;65873;-61
2021/12/23 04:53:10;;;;;;;;;57.00;45.50;;;;;0.91;68.63;100685.28;5079197;27;70879;-61
2021/12/23 04:55:35;;;;;;;;;59.25;45.00;;;;;0.91;68.68;100687.88;5097600;27;64230;-60
2021/12/23 04:58:00;;;;;;;;;69.00;46.00;;;;;0.91;68.75;100683.56;5097587;27;68918;-60
2021/12/23 05:00:26;;;;;;;;;76.25;46.75;;;;;0.93;68.77;100684.31;5097826;27;58995;-61
2021/12/23 05:02:51;;;;;;;;;63.75;46.25;;;;;0.93;68.65;100684.31;5098251;27;45314;-60
2021/12/23 05:05:17;;;;;;;;;20.75;5.00;;;;;0.95;68.93;100687.69;5079880;27;45276;-61
2021/12/23 05:07:42;;;;;;;;;64.00;48.50;;;;;0.95;68.98;100682.50;5098367;27;45715;-60
2021/12/23 05:10:09;;;;;;;;;65.25;46.50;;;;;0.96;68.95;100675.56;5080073;27;45296;-61
2021/12/23 05:12:41;;;;;;;;;62.75;46.25;;;;;0.95;68.82;100679.06;5098133;27;46435;-60
2021/12/23 05:15:08;;;;;;;;;57.25;44.25;;;;;0.95;68.83;100677.34;5098063;27;45252;-60
2021/12/23 05:17:33;;;;;;;;;61.00;44.00;;;;;0.96;68.99;100673.84;5098219;27;45379;-60
2021/12/23 05:19:58;;;;;;;;;65.00;42.25;;;;;0.96;68.79;100673.84;5079123;27;65487;-61
2021/12/23 05:22:24;;;;;;;;;59.75;45.75;;;;;0.99;68.90;100670.25;5097004;27;71731;-61
2021/12/23 05:24:50;;;;;;;;;65.25;46.75;;;;;1.01;68.70;100664.13;5097380;27;63567;-60
2021/12/23 05:27:15;;;;;;;;;63.25;45.25;;;;;1.03;68.87;100658.88;5079712;27;45168;-60
2021/12/23 05:29:41;;;;;;;;;61.25;46.25;;;;;1.02;68.85;100652.00;5098023;27;45459;-61
2021/12/23 05:32:06;;;;;;;;;67.50;51.00;;;;;1.02;69.08;100647.69;5096795;27;72904;-60
2021/12/23 05:34:32;;;;;;;;;64.75;48.25;;;;;1.04;69.09;100647.59;5097594;27;45364;-60
2021/12/23 05:36:58;;;;;;;;;63.50;49.75;;;;;1.04;68.86;100650.19;5097855;27;45314;-60
2021/12/23 05:39:23;;;;;;;;;59.25;44.25;;;;;1.05;69.02;100640.69;5079568;27;45351;-61
2021/12/23 05:41:49;;;;;;;;;65.50;46.75;;;;;1.06;69.13;100645.78;5097111;27;59293;-60
2021/12/23 05:44:14;;;;;;;;;61.25;47.50;;;;;1.07;68.89;100628.50;5078670;27;63759;-60
2021/12/23 05:46:40;;;;;;;;;61.25;48.25;;;;;1.08;69.11;100641.38;5078463;27;65691;-61
2021/12/23 05:49:06;;;;;;;;;68.50;47.75;;;;;1.09;69.08;100631.84;5097637;27;45425;-60
2021/12/23 05:51:31;;;;;;;;;79.25;55.75;;;;;1.12;69.09;100634.28;5097286;27;45516;-61
2021/12/23 05:53:57;;;;;;;;;79.75;56.25;;;;;1.12;69.00;100632.56;5096511;27;69921;-61
2021/12/23 05:56:22;;;;;;;;;72.75;51.00;;;;;1.12;69.28;100627.38;5079313;27;45618;-60
2021/12/23 05:58:47;;;;;;;;;68.00;50.25;;;;;1.13;69.00;100621.28;5078597;27;45665;-60
2021/12/23 06:01:13;;;;;;;;;64.50;47.50;;;;;1.15;68.98;100621.19;5096967;27;54720;-60
2021/12/23 06:03:40;;;;;;;;;64.00;47.00;;;;;1.17;69.11;100627.16;5096728;27;63545;-60
2021/12/23 06:06:05;;;;;;;;;65.50;45.00;;;;;1.18;69.14;100628.81;5079233;27;45249;-60
2021/12/23 06:08:31;;;;;;;;;60.25;43.75;;;;;1.18;69.30;100628.81;5079162;27;45625;-60
2021/12/23 06:10:56;;;;;;;;;78.00;60.50;;;;;1.18;69.10;100632.25;5078447;27;60731;-60
2021/12/23 06:13:21;;;;;;;;;66.50;46.75;;;;;1.21;69.17;100633.03;5077762;27;73043;-60
2021/12/23 06:15:47;;;;;;;;;62.50;47.75;;;;;1.20;69.07;100632.19;5096252;27;64900;-60
2021/12/23 06:18:12;;;;;;;;;72.00;51.25;;;;;1.23;69.17;100636.38;5096999;27;47091;-60
2021/12/23 06:20:37;;;;;;;;;67.25;50.00;;;;;1.26;69.24;100639.66;5096445;27;56715;-60
2021/12/23 06:23:04;;;;;;;;;68.50;48.50;;;;;1.27;69.02;100627.56;5097129;27;45364;-60
2021/12/23 06:25:30;;;;;;;;;62.25;48.00;;;;;1.28;69.16;100632.66;5096954;27;45393;-60
2021/12/23 06:27:55;;;;;;;;;66.75;47.00;;;;;1.32;69.43;100630.78;5078956;27;45257;-60
2021/12/23 06:30:21;;;;;;;;;65.50;44.50;;;;;1.34;69.14;100626.34;5096242;27;67409;-61
2021/12/23 06:32:51;;;;;;;;;60.00;45.00;;;;;1.39;69.23;100624.34;5097092;27;45251;-60
2021/12/23 06:35:17;;;;;;;;;62.50;47.25;;;;;1.42;68.99;100628.56;5096541;27;45498;-60
2021/12/23 06:37:42;;;;;;;;;61.75;43.75;;;;;1.44;69.04;100631.91;5096932;27;45460;-60
2021/12/23 06:40:08;;;;;;;;;65.25;51.00;;;;;1.45;69.24;100631.00;5078529;27;45534;-61
2021/12/23 06:42:33;;;;;;;;;60.50;47.00;;;;;1.50;69.13;100630.78;5078429;27;45336;-60
2021/12/23 06:44:59;;;;;;;;;65.75;48.00;;;;;1.54;69.16;100629.72;5096843;27;45443;-60
2021/12/23 06:47:24;;;;;;;;;66.50;46.50;;;;;1.57;68.98;100632.16;5096818;27;45576;-60
2021/12/23 06:49:49;;;;;;;;;63.25;48.25;;;;;1.60;68.87;100630.22;5095538;27;74752;-60
2021/12/23 06:52:15;;;;;;;;;60.00;48.00;;;;;1.62;68.80;100628.41;5096411;27;49902;-60
2021/12/23 06:54:47;;;;;;;;;64.50;45.00;;;;;1.65;68.66;100631.75;5077739;27;60599;-60
2021/12/23 06:57:13;;;;;;;;;71.00;51.75;;;;;1.66;68.84;100638.63;5079130;27;45323;-60
2021/12/23 06:59:38;;;;;;;;;71.50;50.25;;;;;1.67;68.97;100633.38;5096420;27;45339;-60
2021/12/23 07:02:04;;;;;;;;;65.25;48.50;;;;;1.71;68.93;100639.22;5096423;27;47766;-60
2021/12/23 07:04:32;;;;;;;;;63.00;49.50;;;;;1.72;68.90;100628.81;5096638;27;45380;-61
2021/12/23 07:07:40;;;;;;;;;73.75;50.50;;;;;1.76;68.89;100639.84;5078852;27;45467;-61
2021/12/23 07:09:49;;;;;;;;;68.25;48.50;;;;;1.79;68.91;100644.88;5093914;27;45458;-60
2021/12/23 07:12:14;;;;;;;;;64.00;47.00;;;;;1.81;68.68;100640.44;5097683;27;71749;-61
2021/12/23 07:14:40;;;;;;;;;61.50;45.00;;;;;1.82;68.78;100639.53;5099105;27;62456;-61
2021/12/23 07:17:07;;;;;;;;;66.25;49.25;;;;;1.85;68.62;100644.56;5099507;27;55785;-60
2021/12/23 07:19:32;;;;;;;;;68.00;48.00;;;;;1.89;68.69;100651.28;5099640;27;45339;-61
2021/12/23 07:21:57;;;;;;;;;63.25;45.00;;;;;1.91;68.45;100641.66;5099195;27;58201;-60
2021/12/23 07:24:23;;;;;;;;;59.00;45.25;;;;;1.90;68.61;100649.50;5099576;27;49064;-60
2021/12/23 07:26:49;;;;;;;;;61.00;47.00;;;;;1.90;68.43;100647.78;5064125;27;45580;-61
2021/12/23 07:29:14;;;;;;;;;70.00;51.25;;;;;1.92;68.63;100637.31;5080302;27;69467;-61
2021/12/23 07:31:39;;;;;;;;;66.50;48.00;;;;;1.90;68.31;100647.78;5081216;27;45296;-60
2021/12/23 07:34:05;;;;;;;;;58.00;48.50;;;;;1.92;68.35;100653.72;5080596;27;64758;-60
2021/12/23 07:36:30;;;;;;;;;63.00;46.75;;;;;1.93;68.75;100655.38;5098749;27;65428;-61
2021/12/23 07:38:57;;;;;;;;;66.25;48.75;;;;;1.95;68.40;100657.88;5080103;27;73320;-61
2021/12/23 07:41:23;;;;;;;;;66.75;47.00;;;;;1.99;68.47;100653.41;5081067;27;45851;-61
2021/12/23 07:44:04;;;;;;;;;57.75;42.50;;;;;2.00;68.23;100655.91;5099675;27;45316;-60
2021/12/23 07:46:37;;;;;;;;;64.50;46.25;;;;;2.01;68.36;100648.97;5099516;27;45212;-60
2021/12/23 07:49:02;;;;;;;;;68.00;48.50;;;;;2.03;68.49;100649.75;5080912;27;46232;-60
2021/12/23 07:51:27;;;;;;;;;64.00;46.75;;;;;2.02;68.17;100648.88;5099264;27;45373;-60
2021/12/23 07:53:53;;;;;;;;;68.75;48.50;;;;;2.03;68.40;100652.34;5099299;27;45378;-60
2021/12/23 07:56:22;;;;;;;;;68.25;49.00;;;;;2.02;68.28;100655.84;5099253;27;45370;-61
2021/12/23 07:58:48;;;;;;;;;59.00;45.50;;;;;1.99;68.40;100651.63;5080720;27;46557;-60
2021/12/23 08:01:13;;;;;;;;;63.25;45.25;;;;;2.00;68.26;100661.09;5099123;27;45271;-60
2021/12/23 08:03:38;;;;;;;;;47.00;39.25;;;;;1.99;68.54;100650.81;5098370;27;61025;-60
2021/12/23 08:06:04;;;;;;;;;67.25;49.50;;;;;1.99;68.42;100654.22;5098367;27;61730;-61
2021/12/23 08:08:29;;;;;;;;;61.75;45.25;;;;;2.01;68.79;100661.94;5097807;27;74474;-61
2021/12/23 08:10:55;;;;;;;;;59.00;45.50;;;;;1.99;68.63;100658.59;5080695;27;45393;-60
2021/12/23 08:13:21;;;;;;;;;69.00;46.75;;;;;2.01;68.75;100655.00;5099104;27;45398;-60
2021/12/23 08:15:46;;;;;;;;;65.75;46.00;;;;;2.02;68.93;100668.81;5098723;27;45329;-61
2021/12/23 08:18:12;;;;;;;;;65.25;48.25;;;;;2.02;68.85;100658.44;5079519;27;69537;-60
2021/12/23 08:20:37;;;;;;;;;62.25;47.50;;;;;2.05;68.86;100664.28;5098752;27;45345;-61
2021/12/23 08:23:03;;;;;;;;;57.50;47.25;;;;;2.06;69.11;100654.78;5079622;27;48940;-61
2021/12/23 08:25:28;;;;;;;;;64.25;45.00;;;;;2.06;69.11;100654.78;5097999;27;45335;-60
2021/12/23 08:27:53;;;;;;;;;60.50;46.50;;;;;2.07;68.92;100648.69;5080474;27;45978;-61
2021/12/23 08:30:21;;;;;;;;;64.75;48.75;;;;;2.08;68.93;100652.94;5098791;27;45437;-60
2021/12/23 08:32:47;;;;;;;;;58.75;43.50;;;;;2.12;68.98;100656.22;5098577;27;45366;-61
2021/12/23 08:35:12;;;;;;;;;67.25;50.00;;;;;2.15;68.75;100646.50;5098611;27;45310;-61
2021/12/23 08:37:38;;;;;;;;;66.25;51.50;;;;;2.19;69.22;100652.38;5098401;27;45758;-60
2021/12/23 08:40:04;;;;;;;;;65.75;48.50;;;;;2.20;69.11;100647.09;5080327;27;45349;-60
2021/12/23 08:42:30;;;;;;;;;68.00;51.25;;;;;2.26;68.93;100651.16;5080528;27;45377;-60
2021/12/23 08:44:55;;;;;;;;;66.25;49.50;;;;;2.31;69.03;100649.16;5097649;27;67747;-60
2021/12/23 08:47:20;;;;;;;;;67.75;52.00;;;;;2.35;68.85;100645.50;5097395;27;68835;-60
2021/12/23 08:49:46;;;;;;;;;61.00;46.50;;;;;2.40;69.03;100647.84;5098445;27;45395;-60
2021/12/23 08:52:11;;;;;;;;;63.50;49.50;;;;;2.49;68.66;100651.69;5097746;27;64660;-60
2021/12/23 08:54:37;;;;;;;;;72.00;50.50;;;;;2.54;68.55;100641.91;5098266;27;45173;-60
2021/12/23 08:57:04;;;;;;;;;65.75;48.75;;;;;2.59;68.42;100641.69;5097050;27;70807;-61
2021/12/23 08:59:30;;;;;;;;;72.50;53.00;;;;;2.61;68.30;100634.66;5097421;27;45586;-60
2021/12/23 09:01:55;;;;;;;;;62.25;45.00;;;;;2.66;68.46;100627.44;5079213;27;64031;-60
2021/12/23 09:04:21;;;;;;;;;62.75;48.50;;;;;2.72;68.34;100632.28;5098214;27;45677;-60
2021/12/23 09:06:46;;;;;;;;;58.25;44.00;;;;;2.73;68.29;100636.56;5079957;27;45500;-60
2021/12/23 09:09:12;;;;;;;;;60.00;45.50;;;;;2.78;68.37;100631.16;5097914;27;47067;-60
2021/12/23 09:11:37;;;;;;;;;63.00;48.00;;;;;2.82;68.18;100628.28;5097316;27;63780;-60
2021/12/23 09:14:03;;;;;;;;;61.00;47.00;;;;;2.87;68.53;100629.81;5097042;27;68868;-61
2021/12/23 09:16:28;;;;;;;;;63.25;48.00;;;;;2.92;68.07;100627.78;5097608;27;45443;-60
2021/12/23 09:18:53;;;;;;;;;59.25;44.25;;;;;2.96;68.04;100627.53;5097658;27;48178;-61
2021/12/23 09:21:19;;;;;;;;;60.50;45.50;;;;;3.00;67.77;100625.63;5097068;27;64348;-60
2021/12/23 09:23:44;;;;;;;;;63.50;51.25;;;;;3.05;67.67;100631.41;5096791;27;66377;-61
2021/12/23 09:26:11;;;;;;;;;80.25;58.50;;;;;3.09;67.72;100630.31;5096531;27;62298;-60
2021/12/23 09:33:46;;;;;;;;;63.25;47.00;;;;;3.20;67.45;100629.69;5081408;27;45304;-60
2021/12/23 09:36:11;;;;;;;;;57.25;46.25;;;;;3.25;67.43;100638.06;5096174;27;68384;-61
2021/12/23 09:38:37;;;;;;;;;59.75;44.25;;;;;3.30;67.21;100642.16;5097497;27;45304;-61
2021/12/23 09:41:14;;;;;;;;;62.25;46.25;;;;;3.31;67.59;100634.28;5079248;27;45378;-60
2021/12/23 09:43:41;;;;;;;;;62.75;45.50;;;;;3.35;67.30;100635.78;5097558;27;45522;-61
2021/12/23 09:46:09;;;;;;;;;53.25;43.25;;;;;3.39;67.48;100636.47;5097339;27;46106;-60
2021/12/23 09:48:34;;;;;;;;;65.75;48.25;;;;;3.44;67.33;100639.63;5097476;27;45347;-61
2021/12/23 09:51:02;;;;;;;;;60.75;43.50;;;;;3.49;67.21;100634.16;5096769;27;59500;-61
2021/12/23 09:53:27;;;;;;;;;63.00;44.25;;;;;3.56;67.16;100635.50;5078720;27;45281;-60
2021/12/23 09:55:53;;;;;;;;;61.50;43.75;;;;;3.60;67.17;100626.59;5060657;27;73228;-61
2021/12/23 09:58:19;;;;;;;;;51.50;40.75;;;;;3.63;67.05;100626.41;5077542;27;62342;-61
2021/12/23 10:00:45;;;;;;;;;54.00;42.50;;;;;3.68;67.36;100632.19;5096069;27;45496;-61
2021/12/23 10:03:12;;;;;;;;;56.25;42.00;;;;;3.72;67.12;100628.47;5077587;27;45226;-60
2021/12/23 10:05:38;;;;;;;;;60.00;43.00;;;;;3.78;67.17;100621.22;5096367;27;45860;-61
2021/12/23 10:08:05;;;;;;;;;54.75;42.25;;;;;3.83;67.29;100609.66;5096081;27;70912;-60
2021/12/23 10:37:14;;;;;;;;;55.50;41.50;;;;;4.40;66.96;100571.56;5096507;27;46067;-61
2021/12/23 10:39:41;;;;;;;;;47.75;36.75;;;;;4.46;66.86;100575.56;5096582;27;45217;-61
2021/12/23 10:42:11;;;;;;;;;53.00;41.75;;;;;4.50;67.23;100571.84;5096773;27;45381;-61
2021/12/23 10:44:36;;;;;;;;;46.00;39.25;;;;;4.55;66.83;100574.97;5096692;27;45321;-61
2021/12/23 10:47:02;;;;;;;;;51.00;38.75;;;;;4.58;67.10;100572.19;5099424;27;68620;-60
2021/12/23 10:49:41;;;;;;;;;48.25;38.25;;;;;4.64;66.95;100567.53;5100180;27;45190;-60
2021/12/23 10:52:23;;;;;;;;;53.00;39.25;;;;;4.68;66.93;100563.81;5100458;27;45538;-60
2021/12/23 11:00:45;;;;;;;;;46.75;39.00;;;;;4.82;66.74;100553.34;5017155;28;45504;-60
2021/12/23 11:03:24;;;;;;;;;55.75;38.50;;;;;4.88;66.72;100550.34;5000145;28;45402;-61
2021/12/23 11:06:14;;;;;;;;;53.75;40.00;;;;;4.91;66.75;100544.13;5048990;27;45458;-60
2021/12/23 11:41:34;;;;;;;;;49.75;39.50;;;;;5.64;66.81;100515.88;5099415;27;46060;-61
2021/12/23 11:44:01;;;;;;;;;47.25;36.50;;;;;5.70;66.86;100510.25;5099285;27;45917;-61
2021/12/23 11:46:51;;;;;;;;;49.25;39.25;;;;;5.75;67.03;100508.16;5099406;27;45296;-62
2021/12/23 11:49:17;;;;;;;;;50.75;39.25;;;;;5.82;67.11;100512.97;5083472;27;45327;-60
2021/12/23 11:51:51;;;;;;;;;53.50;39.25;;;;;5.90;66.84;100505.41;5099123;27;45338;-61
2021/12/23 11:54:25;;;;;;;;;56.50;44.25;;;;;5.96;66.98;100515.44;5099175;27;45652;-62
2021/12/23 11:57:01;;;;;;;;;56.50;44.25;;;;;6.01;66.75;100502.13;5080059;27;45253;-61
2021/12/23 11:59:26;;;;;;;;;47.50;38.00;;;;;6.05;66.83;100503.56;5065632;27;45362;-60
2021/12/23 12:01:53;;;;;;;;;45.75;37.00;;;;;6.12;66.63;100498.75;5080844;27;45428;-60
2021/12/23 12:04:21;;;;;;;;;50.50;38.25;;;;;6.16;66.77;100495.78;5099030;27;45646;-61
2021/12/23 12:06:47;;;;;;;;;51.50;39.00;;;;;6.19;66.66;100499.97;5098942;27;45314;-60
2021/12/23 12:09:16;;;;;;;;;52.50;40.75;;;;;6.22;66.66;100495.38;5098817;27;45291;-60
2021/12/23 12:12:07;;;;;;;;;55.00;38.50;;;;;6.27;66.76;100489.00;5098781;27;45696;-61
2021/12/23 12:14:41;;;;;;;;;49.50;38.00;;;;;6.32;66.96;100494.72;5098162;27;45448;-60
2021/12/23 12:17:34;;;;;;;;;46.00;38.25;;;;;6.36;67.02;100498.78;5098876;27;45509;-61
2021/12/23 12:20:10;;;;;;;;;40.50;35.50;;;;;6.39;67.03;100491.53;5094929;27;45956;-60
2021/12/23 12:23:04;;;;;;;;;45.75;38.00;;;;;6.45;66.96;100484.22;5079880;27;45612;-61
2021/12/23 12:25:29;;;;;;;;;44.25;37.25;;;;;6.49;66.99;100485.66;5098544;27;45517;-60
2021/12/23 12:27:55;;;;;;;;;49.00;38.00;;;;;6.54;67.23;100483.56;5098935;27;45446;-61
2021/12/23 12:30:21;;;;;;;;;53.00;39.67;;;;;6.58;67.12;100484.19;5098869;27;45499;-61
2021/12/23 12:32:47;;;;;;;;;45.75;36.50;;;;;6.63;67.17;100475.06;5062845;27;46392;-61
2021/12/23 12:35:16;;;;;;;;;42.00;35.00;;;;;6.72;67.25;100470.13;5097852;27;62447;-62
2021/12/23 12:37:45;;;;;;;;;52.25;38.00;;;;;6.77;67.13;100466.22;5080335;27;45391;-62